Leandro N. Alem, Argentina
Current Conditions -  °F | °C
As of 2:00 PM on Tuesday 27 Jan 2015 (Local Time) from SAAR Reporting Station
Broken Clouds Broken Clouds  
Wind Chill: 35°   Ceiling: 20000
Heat Index: 42°   Visibility: 6mi
Dew Point: 24°   Wind: 18mph
Humidity: 53%   Direction: 360°N
Pressure: 29.71"   Gusts: NA
Location:  34.5°S, 61.4°W
Report Text: SAAR 271700Z 36016KT 9999 FEW032 BKN20035/24 Q1006
Loading
Personal Weather Stations






























Interactive Weather Map New forecast layout! Learn more

10-Day Weather Forecast

Advertisements
Track Severe Weather on mobile